Time,TemperatureF,DewpointF,PressureIn,WindDirection,WindDirectionDegrees,WindSpeedMPH,WindSpeedGustMPH,Humidity,HourlyPrecipIn,Conditions,Clouds,dailyrainin,SoftwareType,DateUTC
2013-08-13 00:21:00,71.0,71.0,-100.00,WNW,300,0.0,0.0,99,-99.99,,,-99.99,,2013-08-13 05:21:00,
2013-08-13 00:52:00,70.0,69.0,-100.00,WNW,300,0.0,0.0,99,-99.99,,,-99.99,,2013-08-13 05:52:00,
2013-08-13 01:21:00,69.0,68.0,-100.00,NNW,340,0.0,0.0,99,-99.99,,,-99.99,,2013-08-13 06:21:00,
2013-08-13 01:52:00,67.0,67.0,-100.00,NNW,330,0.0,0.0,99,-99.99,,,-99.99,,2013-08-13 06:52:00,
2013-08-13 02:21:00,67.0,66.0,-100.00,NNW,335,0.0,0.0,99,-99.99,,,-99.99,,2013-08-13 07:21:00,
2013-08-13 02:52:00,66.0,66.0,-100.00,NW,325,0.0,0.0,99,-99.99,,,-99.99,,2013-08-13 07:52:00,
2013-08-13 03:22:00,66.0,65.0,-100.00,NW,310,0.0,0.0,99,-99.99,,,-99.99,,2013-08-13 08:22:00,
2013-08-13 03:52:00,65.0,64.0,-100.00,SSW,200,0.0,0.0,99,-99.99,,,-99.99,,2013-08-13 08:52:00,
2013-08-13 04:22:00,64.0,64.0,-100.00,WNW,300,0.0,0.0,99,-99.99,,,-99.99,,2013-08-13 09:22:00,
2013-08-13 04:54:00,64.0,64.0,-100.00,NNW,330,0.0,0.0,99,-99.99,,,-99.99,,2013-08-13 09:54:00,
2013-08-13 05:23:00,64.0,64.0,-100.00,NW,305,0.0,0.0,99,-99.99,,,-99.99,,2013-08-13 10:23:00,
2013-08-13 05:53:00,63.0,63.0,-100.00,NNW,330,0.0,0.0,99,-99.99,,,-99.99,,2013-08-13 10:53:00,
2013-08-13 06:22:00,63.0,63.0,-100.00,NW,310,0.0,0.0,99,-99.99,,,-99.99,,2013-08-13 11:22:00,
2013-08-13 06:52:00,63.0,63.0,-100.00,ENE,65,0.0,0.0,99,-99.99,,,-99.99,,2013-08-13 11:52:00,
2013-08-13 07:21:00,64.0,64.0,-100.00,NNW,345,0.0,0.0,99,-99.99,,,-99.99,,2013-08-13 12:21:00,
2013-08-13 07:52:00,65.0,64.0,-100.00,NNW,340,0.0,0.0,99,-99.99,,,-99.99,,2013-08-13 12:52:00,
2013-08-13 08:22:00,66.0,66.0,-100.00,NNW,340,0.0,0.0,99,-99.99,,,-99.99,,2013-08-13 13:22:00,
2013-08-13 08:52:00,68.0,65.0,-100.00,North,350,0.0,0.0,92,-99.99,,,-99.99,,2013-08-13 13:52:00,
2013-08-13 09:22:00,69.0,66.0,-100.00,NNW,340,0.0,0.0,89,-99.99,,,-99.99,,2013-08-13 14:22:00,
2013-08-13 09:52:00,72.0,67.0,-100.00,ENE,70,0.0,0.0,85,-99.99,,,-99.99,,2013-08-13 14:52:00,
2013-08-13 10:21:00,72.0,67.0,-100.00,ENE,65,0.0,0.0,83,-99.99,,,-99.99,,2013-08-13 15:21:00,
2013-08-13 10:54:00,74.0,68.0,-100.00,North,355,0.0,0.0,83,-99.99,,,-99.99,,2013-08-13 15:54:00,
2013-08-13 11:23:00,73.0,68.0,-100.00,North,355,0.0,0.0,85,-99.99,,,-99.99,,2013-08-13 16:23:00,
2013-08-13 11:54:00,71.0,68.0,-100.00,NE,55,0.0,0.0,88,-99.99,,,-99.99,,2013-08-13 16:54:00,
2013-08-13 12:27:00,72.0,69.0,-100.00,East,100,0.0,0.0,88,-99.99,,,-99.99,,2013-08-13 17:27:00,
2013-08-13 12:46:00,-999.0,-99.9,-100.00,NNW,335,0.0,0.0,85,-99.99,,,-99.99,,2013-08-13 17:46:00,
2013-08-13 12:56:00,74.0,69.0,-100.00,NNW,335,0.0,0.0,85,-99.99,,,-99.99,,2013-08-13 17:56:00,
2013-08-13 13:25:00,77.0,68.0,-100.00,ENE,65,0.0,0.0,74,-99.99,,,-99.99,,2013-08-13 18:25:00,
2013-08-13 13:56:00,79.0,68.0,-100.00,North,355,0.0,0.0,69,-99.99,,,-99.99,,2013-08-13 18:56:00,
2013-08-13 14:24:00,81.0,68.0,-100.00,ENE,75,0.0,0.0,64,-99.99,,,-99.99,,2013-08-13 19:24:00,
2013-08-13 14:55:00,82.0,66.0,-100.00,East,90,0.0,0.0,60,-99.99,,,-99.99,,2013-08-13 19:55:00,
2013-08-13 15:22:00,82.0,66.0,-100.00,NE,55,0.0,0.0,58,-99.99,,,-99.99,,2013-08-13 20:22:00,
2013-08-13 15:53:00,80.0,65.0,-100.00,ESE,110,0.0,0.0,60,-99.99,,,-99.99,,2013-08-13 20:53:00,
2013-08-13 16:24:00,77.0,64.0,-100.00,ENE,70,0.0,0.0,63,-99.99,,,-99.99,,2013-08-13 21:24:00,
2013-08-13 16:54:00,76.0,62.0,-100.00,North,0,0.0,0.0,62,-99.99,,,-99.99,,2013-08-13 21:54:00,
2013-08-13 17:22:00,75.0,61.0,-100.00,North,355,0.0,0.0,62,-99.99,,,-99.99,,2013-08-13 22:22:00,
2013-08-13 17:57:00,75.0,61.0,-100.00,ENE,60,0.0,0.0,63,-99.99,,,-99.99,,2013-08-13 22:57:00,
2013-08-13 18:26:00,74.0,61.0,-100.00,East,85,0.0,0.0,63,-99.99,,,-99.99,,2013-08-13 23:26:00,
2013-08-13 18:57:00,72.0,60.0,-100.00,North,350,0.0,0.0,64,-99.99,,,-99.99,,2013-08-13 23:57:00,
2013-08-13 19:22:00,72.0,60.0,-100.00,North,355,0.0,0.0,68,-99.99,,,-99.99,,2013-08-14 00:22:00,
2013-08-13 19:52:00,71.0,60.0,-100.00,NE,50,0.0,0.0,69,-99.99,,,-99.99,,2013-08-14 00:52:00,
2013-08-13 20:21:00,70.0,60.0,-100.00,NE,55,0.0,0.0,72,-99.99,,,-99.99,,2013-08-14 01:21:00,
2013-08-13 20:52:00,69.0,60.0,-100.00,ENE,65,0.0,0.0,73,-99.99,,,-99.99,,2013-08-14 01:52:00,
2013-08-13 21:22:00,68.0,60.0,-100.00,North,355,0.0,0.0,77,-99.99,,,-99.99,,2013-08-14 02:22:00,
2013-08-13 21:52:00,66.0,60.0,-100.00,East,80,0.0,0.0,80,-99.99,,,-99.99,,2013-08-14 02:52:00,
2013-08-13 22:22:00,65.0,60.0,-100.00,ESE,110,0.0,0.0,83,-99.99,,,-99.99,,2013-08-14 03:22:00,
2013-08-13 22:53:00,64.0,59.0,-100.00,ESE,105,0.0,0.0,85,-99.99,,,-99.99,,2013-08-14 03:53:00,
2013-08-13 23:23:00,63.0,59.0,-100.00,East,95,0.0,0.0,89,-99.99,,,-99.99,,2013-08-14 04:23:00,
2013-08-13 23:52:00,62.0,60.0,-100.00,East,85,0.0,0.0,92,-99.99,,,-99.99,,2013-08-14 04:52:00,